sensor_id;sensor_type;location;lat;lon;timestamp;temperature;humidity
46231;DHT22;31949;51.404;-0.038;2022-12-10T00:01:38;0.50;99.90
46231;DHT22;31949;51.404;-0.038;2022-12-10T00:04:06;0.50;99.90
46231;DHT22;31949;51.404;-0.038;2022-12-10T00:06:36;0.50;99.90
46231;DHT22;31949;51.404;-0.038;2022-12-10T00:09:05;0.50;99.90
46231;DHT22;31949;51.404;-0.038;2022-12-10T00:11:33;0.50;99.90
46231;DHT22;31949;51.404;-0.038;2022-12-10T00:14:08;0.50;99.90
46231;DHT22;31949;51.404;-0.038;2022-12-10T00:16:35;0.40;99.90
46231;DHT22;31949;51.404;-0.038;2022-12-10T00:19:05;0.40;99.90
46231;DHT22;31949;51.404;-0.038;2022-12-10T00:21:36;0.40;99.90
46231;DHT22;31949;51.404;-0.038;2022-12-10T00:24:11;0.30;99.90
46231;DHT22;31949;51.404;-0.038;2022-12-10T00:26:42;0.40;99.90
46231;DHT22;31949;51.404;-0.038;2022-12-10T00:29:11;0.40;99.90
46231;DHT22;31949;51.404;-0.038;2022-12-10T00:31:41;0.40;99.90
46231;DHT22;31949;51.404;-0.038;2022-12-10T00:34:10;0.40;99.90
46231;DHT22;31949;51.404;-0.038;2022-12-10T00:36:58;0.50;99.90
46231;DHT22;31949;51.404;-0.038;2022-12-10T00:39:27;0.50;99.90
46231;DHT22;31949;51.404;-0.038;2022-12-10T00:41:54;0.50;99.90
46231;DHT22;31949;51.404;-0.038;2022-12-10T00:44:23;0.50;99.90
46231;DHT22;31949;51.404;-0.038;2022-12-10T00:46:53;0.40;99.90
46231;DHT22;31949;51.404;-0.038;2022-12-10T00:49:20;0.50;99.90
46231;DHT22;31949;51.404;-0.038;2022-12-10T00:51:50;0.50;99.90
46231;DHT22;31949;51.404;-0.038;2022-12-10T00:54:32;0.50;99.90
46231;DHT22;31949;51.404;-0.038;2022-12-10T00:57:03;0.50;99.90
46231;DHT22;31949;51.404;-0.038;2022-12-10T00:59:30;0.50;99.90
46231;DHT22;31949;51.404;-0.038;2022-12-10T01:01:57;0.50;99.90
46231;DHT22;31949;51.404;-0.038;2022-12-10T01:08:03;0.50;99.90
46231;DHT22;31949;51.404;-0.038;2022-12-10T01:10:39;0.40;99.90
46231;DHT22;31949;51.404;-0.038;2022-12-10T01:13:09;0.50;99.90
46231;DHT22;31949;51.404;-0.038;2022-12-10T01:15:40;0.50;99.90
46231;DHT22;31949;51.404;-0.038;2022-12-10T01:18:19;0.50;99.90
46231;DHT22;31949;51.404;-0.038;2022-12-10T01:20:50;0.40;99.90
46231;DHT22;31949;51.404;-0.038;2022-12-10T01:23:54;0.40;99.90
46231;DHT22;31949;51.404;-0.038;2022-12-10T01:26:35;0.40;99.90
46231;DHT22;31949;51.404;-0.038;2022-12-10T01:29:12;0.40;99.90
46231;DHT22;31949;51.404;-0.038;2022-12-10T01:31:41;0.40;99.90
46231;DHT22;31949;51.404;-0.038;2022-12-10T01:34:13;0.40;99.90
46231;DHT22;31949;51.404;-0.038;2022-12-10T01:36:45;0.40;99.90
46231;DHT22;31949;51.404;-0.038;2022-12-10T01:39:18;0.40;99.90
46231;DHT22;31949;51.404;-0.038;2022-12-10T01:42:02;0.40;99.90
46231;DHT22;31949;51.404;-0.038;2022-12-10T01:47:04;0.30;99.90
46231;DHT22;31949;51.404;-0.038;2022-12-10T01:49:38;0.30;99.90
46231;DHT22;31949;51.404;-0.038;2022-12-10T01:52:09;0.30;99.90
46231;DHT22;31949;51.404;-0.038;2022-12-10T01:54:44;0.30;99.90
46231;DHT22;31949;51.404;-0.038;2022-12-10T01:57:27;0.30;99.90
46231;DHT22;31949;51.404;-0.038;2022-12-10T01:59:58;0.30;99.90
46231;DHT22;31949;51.404;-0.038;2022-12-10T02:02:55;0.30;99.90
46231;DHT22;31949;51.404;-0.038;2022-12-10T02:05:42;0.30;99.90
46231;DHT22;31949;51.404;-0.038;2022-12-10T02:08:23;0.30;99.90
46231;DHT22;31949;51.404;-0.038;2022-12-10T02:11:17;0.30;99.90
46231;DHT22;31949;51.404;-0.038;2022-12-10T02:14:04;0.30;99.90
46231;DHT22;31949;51.404;-0.038;2022-12-10T02:16:57;0.30;99.90
46231;DHT22;31949;51.404;-0.038;2022-12-10T02:19:56;0.30;99.90
46231;DHT22;31949;51.404;-0.038;2022-12-10T02:22:21;0.30;99.90
46231;DHT22;31949;51.404;-0.038;2022-12-10T02:24:52;0.30;99.90
46231;DHT22;31949;51.404;-0.038;2022-12-10T02:30:17;0.20;99.90
46231;DHT22;31949;51.404;-0.038;2022-12-10T02:32:49;0.20;99.90
46231;DHT22;31949;51.404;-0.038;2022-12-10T02:35:24;0.20;99.90
46231;DHT22;31949;51.404;-0.038;2022-12-10T02:37:56;0.20;99.90
46231;DHT22;31949;51.404;-0.038;2022-12-10T02:40:36;0.10;99.90
46231;DHT22;31949;51.404;-0.038;2022-12-10T02:43:08;0.10;99.90
46231;DHT22;31949;51.404;-0.038;2022-12-10T02:45:39;0.10;99.90
46231;DHT22;31949;51.404;-0.038;2022-12-10T02:48:07;0.10;99.90
46231;DHT22;31949;51.404;-0.038;2022-12-10T02:50:40;0.10;99.90
46231;DHT22;31949;51.404;-0.038;2022-12-10T02:53:12;0.10;99.90
46231;DHT22;31949;51.404;-0.038;2022-12-10T02:58:22;0.00;99.90
46231;DHT22;31949;51.404;-0.038;2022-12-10T03:01:23;0.00;99.90
46231;DHT22;31949;51.404;-0.038;2022-12-10T03:03:56;0.00;99.90
46231;DHT22;31949;51.404;-0.038;2022-12-10T03:06:36;0.00;99.90
46231;DHT22;31949;51.404;-0.038;2022-12-10T03:09:28;0.00;99.90
46231;DHT22;31949;51.404;-0.038;2022-12-10T03:12:00;0.00;99.90
46231;DHT22;31949;51.404;-0.038;2022-12-10T03:14:31;0.00;99.90
46231;DHT22;31949;51.404;-0.038;2022-12-10T03:17:01;0.00;99.90
46231;DHT22;31949;51.404;-0.038;2022-12-10T03:19:33;0.00;99.90
46231;DHT22;31949;51.404;-0.038;2022-12-10T03:22:04;0.00;99.90
46231;DHT22;31949;51.404;-0.038;2022-12-10T03:24:34;0.00;99.90
46231;DHT22;31949;51.404;-0.038;2022-12-10T03:27:06;0.00;99.90
46231;DHT22;31949;51.404;-0.038;2022-12-10T03:29:47;0.00;99.90
46231;DHT22;31949;51.404;-0.038;2022-12-10T03:32:16;0.00;99.90
46231;DHT22;31949;51.404;-0.038;2022-12-10T03:34:45;0.00;99.90
46231;DHT22;31949;51.404;-0.038;2022-12-10T03:37:13;0.00;99.90
46231;DHT22;31949;51.404;-0.038;2022-12-10T03:39:41;0.00;99.90
46231;DHT22;31949;51.404;-0.038;2022-12-10T03:42:09;0.00;99.90
46231;DHT22;31949;51.404;-0.038;2022-12-10T03:44:39;0.10;99.90
46231;DHT22;31949;51.404;-0.038;2022-12-10T03:47:13;0.00;99.90
46231;DHT22;31949;51.404;-0.038;2022-12-10T03:49:44;0.00;99.90
46231;DHT22;31949;51.404;-0.038;2022-12-10T03:52:14;0.00;99.90
46231;DHT22;31949;51.404;-0.038;2022-12-10T03:54:44;0.00;99.90
46231;DHT22;31949;51.404;-0.038;2022-12-10T03:57:11;0.00;99.90
46231;DHT22;31949;51.404;-0.038;2022-12-10T03:59:39;-0.10;99.90
46231;DHT22;31949;51.404;-0.038;2022-12-10T04:02:07;-0.10;99.90
46231;DHT22;31949;51.404;-0.038;2022-12-10T04:04:37;-0.20;99.90
46231;DHT22;31949;51.404;-0.038;2022-12-10T04:07:10;-0.20;99.90
46231;DHT22;31949;51.404;-0.038;2022-12-10T04:09:37;-0.30;99.90
46231;DHT22;31949;51.404;-0.038;2022-12-10T04:12:05;-0.30;99.90
46231;DHT22;31949;51.404;-0.038;2022-12-10T04:14:32;-0.40;99.90
46231;DHT22;31949;51.404;-0.038;2022-12-10T04:17:18;-0.30;99.90
46231;DHT22;31949;51.404;-0.038;2022-12-10T04:19:45;-0.40;99.90
46231;DHT22;31949;51.404;-0.038;2022-12-10T04:22:12;-0.40;99.90
46231;DHT22;31949;51.404;-0.038;2022-12-10T04:24:58;-0.40;99.90
46231;DHT22;31949;51.404;-0.038;2022-12-10T04:27:54;-0.30;99.90
46231;DHT22;31949;51.404;-0.038;2022-12-10T04:30:21;-0.30;99.90
46231;DHT22;31949;51.404;-0.038;2022-12-10T04:32:49;-0.40;99.90
46231;DHT22;31949;51.404;-0.038;2022-12-10T04:35:16;-0.40;99.90
46231;DHT22;31949;51.404;-0.038;2022-12-10T04:37:43;-0.40;99.90
46231;DHT22;31949;51.404;-0.038;2022-12-10T04:40:10;-0.40;99.90
46231;DHT22;31949;51.404;-0.038;2022-12-10T04:42:41;-0.30;99.90
46231;DHT22;31949;51.404;-0.038;2022-12-10T04:45:08;-0.30;99.90
46231;DHT22;31949;51.404;-0.038;2022-12-10T04:47:36;-0.40;99.90
46231;DHT22;31949;51.404;-0.038;2022-12-10T04:50:03;-0.40;99.90
46231;DHT22;31949;51.404;-0.038;2022-12-10T04:52:30;-0.40;99.90
46231;DHT22;31949;51.404;-0.038;2022-12-10T04:54:57;-0.40;99.90
46231;DHT22;31949;51.404;-0.038;2022-12-10T04:57:33;-0.40;99.90
46231;DHT22;31949;51.404;-0.038;2022-12-10T05:00:01;-0.50;99.90
46231;DHT22;31949;51.404;-0.038;2022-12-10T05:02:28;-0.40;99.90
46231;DHT22;31949;51.404;-0.038;2022-12-10T05:04:58;-0.50;99.90
46231;DHT22;31949;51.404;-0.038;2022-12-10T05:07:25;-0.50;99.90
46231;DHT22;31949;51.404;-0.038;2022-12-10T05:09:55;-0.50;99.90
46231;DHT22;31949;51.404;-0.038;2022-12-10T05:12:22;-0.50;99.90
46231;DHT22;31949;51.404;-0.038;2022-12-10T05:14:54;-0.50;99.90
46231;DHT22;31949;51.404;-0.038;2022-12-10T05:17:23;-0.50;99.90
46231;DHT22;31949;51.404;-0.038;2022-12-10T05:19:51;-0.60;99.90
46231;DHT22;31949;51.404;-0.038;2022-12-10T05:22:24;-0.60;99.90
46231;DHT22;31949;51.404;-0.038;2022-12-10T05:25:09;-0.60;99.90
46231;DHT22;31949;51.404;-0.038;2022-12-10T05:27:37;-0.60;99.90
46231;DHT22;31949;51.404;-0.038;2022-12-10T05:30:06;-0.60;99.90
46231;DHT22;31949;51.404;-0.038;2022-12-10T05:32:37;-0.60;99.90
46231;DHT22;31949;51.404;-0.038;2022-12-10T05:35:05;-0.60;99.90
46231;DHT22;31949;51.404;-0.038;2022-12-10T05:37:32;-0.60;99.90
46231;DHT22;31949;51.404;-0.038;2022-12-10T05:40:00;-0.60;99.90
46231;DHT22;31949;51.404;-0.038;2022-12-10T05:42:30;-0.70;99.90
46231;DHT22;31949;51.404;-0.038;2022-12-10T05:44:58;-0.70;99.90
46231;DHT22;31949;51.404;-0.038;2022-12-10T05:47:25;-0.70;99.90
46231;DHT22;31949;51.404;-0.038;2022-12-10T05:49:52;-0.70;99.90
46231;DHT22;31949;51.404;-0.038;2022-12-10T05:52:19;-0.70;99.90
46231;DHT22;31949;51.404;-0.038;2022-12-10T05:54:47;-0.70;99.90
46231;DHT22;31949;51.404;-0.038;2022-12-10T05:57:14;-0.70;99.90
46231;DHT22;31949;51.404;-0.038;2022-12-10T05:59:42;-0.70;99.90
46231;DHT22;31949;51.404;-0.038;2022-12-10T06:02:09;-0.70;99.90
46231;DHT22;31949;51.404;-0.038;2022-12-10T06:04:36;-0.70;99.90
46231;DHT22;31949;51.404;-0.038;2022-12-10T06:07:03;-0.70;99.90
46231;DHT22;31949;51.404;-0.038;2022-12-10T06:09:37;-0.70;99.90
46231;DHT22;31949;51.404;-0.038;2022-12-10T06:12:07;-0.70;99.90
46231;DHT22;31949;51.404;-0.038;2022-12-10T06:14:34;-0.70;99.90
46231;DHT22;31949;51.404;-0.038;2022-12-10T06:17:01;-0.70;99.90
46231;DHT22;31949;51.404;-0.038;2022-12-10T06:19:28;-0.70;99.90
46231;DHT22;31949;51.404;-0.038;2022-12-10T06:21:56;-0.70;99.90
46231;DHT22;31949;51.404;-0.038;2022-12-10T06:24:25;-0.70;99.90
46231;DHT22;31949;51.404;-0.038;2022-12-10T06:26:52;-0.80;99.90
46231;DHT22;31949;51.404;-0.038;2022-12-10T06:29:22;-0.80;99.90
46231;DHT22;31949;51.404;-0.038;2022-12-10T06:31:49;-0.80;99.90
46231;DHT22;31949;51.404;-0.038;2022-12-10T06:34:16;-0.80;99.90
46231;DHT22;31949;51.404;-0.038;2022-12-10T06:36:43;-0.80;99.90
46231;DHT22;31949;51.404;-0.038;2022-12-10T06:39:11;-0.80;99.90
46231;DHT22;31949;51.404;-0.038;2022-12-10T06:41:38;-0.90;99.90
46231;DHT22;31949;51.404;-0.038;2022-12-10T06:44:09;-0.90;99.90
46231;DHT22;31949;51.404;-0.038;2022-12-10T06:46:37;-0.90;99.90
46231;DHT22;31949;51.404;-0.038;2022-12-10T06:49:06;-0.90;99.90
46231;DHT22;31949;51.404;-0.038;2022-12-10T06:51:33;-0.90;99.90
46231;DHT22;31949;51.404;-0.038;2022-12-10T06:54:01;-0.90;99.90
46231;DHT22;31949;51.404;-0.038;2022-12-10T06:56:28;-0.90;99.90
46231;DHT22;31949;51.404;-0.038;2022-12-10T06:58:55;-0.90;99.90
46231;DHT22;31949;51.404;-0.038;2022-12-10T07:01:24;-0.80;99.90
46231;DHT22;31949;51.404;-0.038;2022-12-10T07:03:56;-0.80;99.90
46231;DHT22;31949;51.404;-0.038;2022-12-10T07:06:24;-0.80;99.90
46231;DHT22;31949;51.404;-0.038;2022-12-10T07:08:52;-0.80;99.90
46231;DHT22;31949;51.404;-0.038;2022-12-10T07:11:21;-0.80;99.90
46231;DHT22;31949;51.404;-0.038;2022-12-10T07:13:48;-0.80;99.90
46231;DHT22;31949;51.404;-0.038;2022-12-10T07:16:21;-0.70;99.90
46231;DHT22;31949;51.404;-0.038;2022-12-10T07:18:49;-0.70;99.90
46231;DHT22;31949;51.404;-0.038;2022-12-10T07:21:24;-0.70;99.90
46231;DHT22;31949;51.404;-0.038;2022-12-10T07:23:53;-0.70;99.90
46231;DHT22;31949;51.404;-0.038;2022-12-10T07:26:23;-0.70;99.90
46231;DHT22;31949;51.404;-0.038;2022-12-10T07:28:51;-0.70;99.90
46231;DHT22;31949;51.404;-0.038;2022-12-10T07:31:21;-0.70;99.90
46231;DHT22;31949;51.404;-0.038;2022-12-10T07:33:53;-0.70;99.90
46231;DHT22;31949;51.404;-0.038;2022-12-10T07:36:21;-0.80;99.90
46231;DHT22;31949;51.404;-0.038;2022-12-10T07:38:52;-0.80;99.90
46231;DHT22;31949;51.404;-0.038;2022-12-10T07:41:21;-0.80;99.90
46231;DHT22;31949;51.404;-0.038;2022-12-10T07:43:49;-0.80;99.90
46231;DHT22;31949;51.404;-0.038;2022-12-10T07:46:25;-0.80;99.90
46231;DHT22;31949;51.404;-0.038;2022-12-10T07:48:53;-0.80;99.90
46231;DHT22;31949;51.404;-0.038;2022-12-10T07:51:22;-0.80;99.90
46231;DHT22;31949;51.404;-0.038;2022-12-10T07:53:53;-0.80;99.90
46231;DHT22;31949;51.404;-0.038;2022-12-10T07:56:21;-0.80;99.90
46231;DHT22;31949;51.404;-0.038;2022-12-10T07:58:50;-0.70;99.90
46231;DHT22;31949;51.404;-0.038;2022-12-10T08:01:21;-0.70;99.90
46231;DHT22;31949;51.404;-0.038;2022-12-10T08:03:50;-0.70;99.90
46231;DHT22;31949;51.404;-0.038;2022-12-10T08:06:20;-0.70;99.90
46231;DHT22;31949;51.404;-0.038;2022-12-10T08:08:48;-0.70;99.90
46231;DHT22;31949;51.404;-0.038;2022-12-10T08:11:17;-0.60;99.90
46231;DHT22;31949;51.404;-0.038;2022-12-10T08:13:47;-0.60;99.90
46231;DHT22;31949;51.404;-0.038;2022-12-10T08:16:24;-0.50;99.90
46231;DHT22;31949;51.404;-0.038;2022-12-10T08:18:53;-0.50;99.90
46231;DHT22;31949;51.404;-0.038;2022-12-10T08:21:25;-0.50;99.90
46231;DHT22;31949;51.404;-0.038;2022-12-10T08:23:55;-0.50;99.90
46231;DHT22;31949;51.404;-0.038;2022-12-10T08:26:24;-0.50;99.90
46231;DHT22;31949;51.404;-0.038;2022-12-10T08:28:53;-0.50;99.90
46231;DHT22;31949;51.404;-0.038;2022-12-10T08:31:22;-0.50;99.90
46231;DHT22;31949;51.404;-0.038;2022-12-10T08:33:50;-0.50;99.90
46231;DHT22;31949;51.404;-0.038;2022-12-10T08:36:18;-0.50;99.90
46231;DHT22;31949;51.404;-0.038;2022-12-10T08:38:46;-0.50;99.90
46231;DHT22;31949;51.404;-0.038;2022-12-10T08:41:16;-0.50;99.90
46231;DHT22;31949;51.404;-0.038;2022-12-10T08:43:43;-0.40;99.90
46231;DHT22;31949;51.404;-0.038;2022-12-10T08:46:12;-0.40;99.90
46231;DHT22;31949;51.404;-0.038;2022-12-10T08:48:40;-0.40;99.90
46231;DHT22;31949;51.404;-0.038;2022-12-10T08:51:10;-0.40;99.90
46231;DHT22;31949;51.404;-0.038;2022-12-10T08:53:37;-0.40;99.90
46231;DHT22;31949;51.404;-0.038;2022-12-10T08:56:05;-0.30;99.90
46231;DHT22;31949;51.404;-0.038;2022-12-10T08:58:32;-0.30;99.90
46231;DHT22;31949;51.404;-0.038;2022-12-10T09:01:00;-0.30;99.90
46231;DHT22;31949;51.404;-0.038;2022-12-10T09:03:32;-0.20;99.90
46231;DHT22;31949;51.404;-0.038;2022-12-10T09:06:05;-0.10;99.90
46231;DHT22;31949;51.404;-0.038;2022-12-10T09:08:33;-0.10;99.90
46231;DHT22;31949;51.404;-0.038;2022-12-10T09:11:11;0.00;99.90
46231;DHT22;31949;51.404;-0.038;2022-12-10T09:13:41;0.00;99.90
46231;DHT22;31949;51.404;-0.038;2022-12-10T09:16:12;0.10;99.90
46231;DHT22;31949;51.404;-0.038;2022-12-10T09:18:45;0.20;99.90
46231;DHT22;31949;51.404;-0.038;2022-12-10T09:21:15;0.20;99.90
46231;DHT22;31949;51.404;-0.038;2022-12-10T09:23:43;0.30;99.90
46231;DHT22;31949;51.404;-0.038;2022-12-10T09:26:24;0.30;99.90
46231;DHT22;31949;51.404;-0.038;2022-12-10T09:28:52;0.40;99.90
46231;DHT22;31949;51.404;-0.038;2022-12-10T09:31:21;0.40;99.90
46231;DHT22;31949;51.404;-0.038;2022-12-10T09:33:53;0.50;99.90
46231;DHT22;31949;51.404;-0.038;2022-12-10T09:36:21;0.50;99.90
46231;DHT22;31949;51.404;-0.038;2022-12-10T09:38:54;0.50;99.90
46231;DHT22;31949;51.404;-0.038;2022-12-10T09:44:21;0.70;99.90
46231;DHT22;31949;51.404;-0.038;2022-12-10T09:46:55;0.80;99.90
46231;DHT22;31949;51.404;-0.038;2022-12-10T09:52:14;0.80;99.90
46231;DHT22;31949;51.404;-0.038;2022-12-10T09:54:43;0.90;99.90
46231;DHT22;31949;51.404;-0.038;2022-12-10T09:57:29;1.00;99.90
46231;DHT22;31949;51.404;-0.038;2022-12-10T10:02:42;1.10;99.90
46231;DHT22;31949;51.404;-0.038;2022-12-10T10:05:13;1.20;99.90
46231;DHT22;31949;51.404;-0.038;2022-12-10T10:07:47;1.20;99.90
46231;DHT22;31949;51.404;-0.038;2022-12-10T10:10:26;1.30;99.90
46231;DHT22;31949;51.404;-0.038;2022-12-10T10:12:57;1.40;99.90
46231;DHT22;31949;51.404;-0.038;2022-12-10T10:15:31;1.50;99.90
46231;DHT22;31949;51.404;-0.038;2022-12-10T10:20:50;1.60;99.90
46231;DHT22;31949;51.404;-0.038;2022-12-10T10:23:17;1.60;99.90
46231;DHT22;31949;51.404;-0.038;2022-12-10T10:25:44;1.70;99.90
46231;DHT22;31949;51.404;-0.038;2022-12-10T10:28:19;1.80;99.90
46231;DHT22;31949;51.404;-0.038;2022-12-10T10:30:46;1.80;99.90
46231;DHT22;31949;51.404;-0.038;2022-12-10T10:33:15;1.90;99.90
46231;DHT22;31949;51.404;-0.038;2022-12-10T10:35:48;2.00;99.90
46231;DHT22;31949;51.404;-0.038;2022-12-10T10:38:27;2.10;99.90
46231;DHT22;31949;51.404;-0.038;2022-12-10T10:41:02;2.20;99.90
46231;DHT22;31949;51.404;-0.038;2022-12-10T10:43:42;2.20;99.90
46231;DHT22;31949;51.404;-0.038;2022-12-10T10:46:22;2.30;99.90
46231;DHT22;31949;51.404;-0.038;2022-12-10T10:48:50;2.40;99.90
46231;DHT22;31949;51.404;-0.038;2022-12-10T10:51:22;2.50;99.90
46231;DHT22;31949;51.404;-0.038;2022-12-10T10:53:54;2.50;99.90
46231;DHT22;31949;51.404;-0.038;2022-12-10T10:56:28;2.50;99.90
46231;DHT22;31949;51.404;-0.038;2022-12-10T11:01:44;2.70;99.90
46231;DHT22;31949;51.404;-0.038;2022-12-10T11:04:17;2.70;99.90
46231;DHT22;31949;51.404;-0.038;2022-12-10T11:06:45;2.70;99.90
46231;DHT22;31949;51.404;-0.038;2022-12-10T11:09:33;2.90;99.90
46231;DHT22;31949;51.404;-0.038;2022-12-10T11:12:04;2.90;99.90
46231;DHT22;31949;51.404;-0.038;2022-12-10T11:14:44;3.00;99.90
46231;DHT22;31949;51.404;-0.038;2022-12-10T11:19:56;3.10;99.90
46231;DHT22;31949;51.404;-0.038;2022-12-10T11:22:29;3.00;99.90
46231;DHT22;31949;51.404;-0.038;2022-12-10T11:24:58;3.00;99.90
46231;DHT22;31949;51.404;-0.038;2022-12-10T11:28:03;3.00;99.90
46231;DHT22;31949;51.404;-0.038;2022-12-10T11:30:33;3.00;99.90
46231;DHT22;31949;51.404;-0.038;2022-12-10T11:33:32;3.10;99.90
46231;DHT22;31949;51.404;-0.038;2022-12-10T11:38:56;3.20;99.90
46231;DHT22;31949;51.404;-0.038;2022-12-10T11:41:40;3.30;99.90
46231;DHT22;31949;51.404;-0.038;2022-12-10T11:44:24;3.40;99.90
46231;DHT22;31949;51.404;-0.038;2022-12-10T11:52:35;3.60;99.90
46231;DHT22;31949;51.404;-0.038;2022-12-10T12:04:06;3.70;99.90
46231;DHT22;31949;51.404;-0.038;2022-12-10T12:11:59;3.80;99.90
46231;DHT22;31949;51.404;-0.038;2022-12-10T12:14:58;3.90;99.90
46231;DHT22;31949;51.404;-0.038;2022-12-10T12:17:37;3.90;99.90
46231;DHT22;31949;51.404;-0.038;2022-12-10T12:20:37;3.90;99.90
46231;DHT22;31949;51.404;-0.038;2022-12-10T12:25:48;4.00;99.90
46231;DHT22;31949;51.404;-0.038;2022-12-10T12:28:27;4.10;99.90
46231;DHT22;31949;51.404;-0.038;2022-12-10T12:31:13;4.10;99.90
46231;DHT22;31949;51.404;-0.038;2022-12-10T12:33:50;4.20;99.90
46231;DHT22;31949;51.404;-0.038;2022-12-10T12:36:22;4.20;99.90
46231;DHT22;31949;51.404;-0.038;2022-12-10T12:41:39;4.20;99.90
46231;DHT22;31949;51.404;-0.038;2022-12-10T12:44:15;4.30;99.90
46231;DHT22;31949;51.404;-0.038;2022-12-10T12:46:46;4.30;99.90
46231;DHT22;31949;51.404;-0.038;2022-12-10T12:51:52;4.30;99.90
46231;DHT22;31949;51.404;-0.038;2022-12-10T12:54:21;4.40;99.90
46231;DHT22;31949;51.404;-0.038;2022-12-10T12:57:47;4.40;99.90
46231;DHT22;31949;51.404;-0.038;2022-12-10T12:59:53;4.40;99.90
46231;DHT22;31949;51.404;-0.038;2022-12-10T13:02:50;4.40;99.90
46231;DHT22;31949;51.404;-0.038;2022-12-10T13:05:37;4.40;99.90
46231;DHT22;31949;51.404;-0.038;2022-12-10T13:24:43;4.30;99.90
46231;DHT22;31949;51.404;-0.038;2022-12-10T13:32:22;4.20;99.90
46231;DHT22;31949;51.404;-0.038;2022-12-10T13:35:22;4.10;99.90
46231;DHT22;31949;51.404;-0.038;2022-12-10T13:43:37;4.00;99.90
46231;DHT22;31949;51.404;-0.038;2022-12-10T13:48:53;4.00;99.90
46231;DHT22;31949;51.404;-0.038;2022-12-10T13:52:19;4.10;99.90
46231;DHT22;31949;51.404;-0.038;2022-12-10T13:57:50;4.20;99.90
46231;DHT22;31949;51.404;-0.038;2022-12-10T14:00:22;4.20;99.90
46231;DHT22;31949;51.404;-0.038;2022-12-10T14:08:12;4.30;99.90
46231;DHT22;31949;51.404;-0.038;2022-12-10T14:10:41;4.30;99.90
46231;DHT22;31949;51.404;-0.038;2022-12-10T14:13:15;4.40;99.90
46231;DHT22;31949;51.404;-0.038;2022-12-10T14:15:53;4.50;99.90
46231;DHT22;31949;51.404;-0.038;2022-12-10T14:18:22;4.50;99.90
46231;DHT22;31949;51.404;-0.038;2022-12-10T14:20:53;4.40;99.90
46231;DHT22;31949;51.404;-0.038;2022-12-10T14:23:29;4.40;99.90
46231;DHT22;31949;51.404;-0.038;2022-12-10T14:26:35;4.50;99.90
46231;DHT22;31949;51.404;-0.038;2022-12-10T14:29:32;4.50;99.90
46231;DHT22;31949;51.404;-0.038;2022-12-10T14:31:59;4.40;99.90
46231;DHT22;31949;51.404;-0.038;2022-12-10T14:34:28;4.40;99.90
46231;DHT22;31949;51.404;-0.038;2022-12-10T14:36:57;4.40;99.90
46231;DHT22;31949;51.404;-0.038;2022-12-10T14:39:30;4.50;99.90
46231;DHT22;31949;51.404;-0.038;2022-12-10T14:42:01;4.40;99.90
46231;DHT22;31949;51.404;-0.038;2022-12-10T14:44:30;4.40;99.90
46231;DHT22;31949;51.404;-0.038;2022-12-10T14:47:19;4.30;99.90
46231;DHT22;31949;51.404;-0.038;2022-12-10T14:49:53;4.20;99.90
46231;DHT22;31949;51.404;-0.038;2022-12-10T14:52:23;4.20;99.90
46231;DHT22;31949;51.404;-0.038;2022-12-10T14:54:51;4.20;99.90
46231;DHT22;31949;51.404;-0.038;2022-12-10T14:57:26;4.10;99.90
46231;DHT22;31949;51.404;-0.038;2022-12-10T15:02:34;4.10;99.90
46231;DHT22;31949;51.404;-0.038;2022-12-10T15:05:15;4.10;99.90
46231;DHT22;31949;51.404;-0.038;2022-12-10T15:07:55;4.10;99.90
46231;DHT22;31949;51.404;-0.038;2022-12-10T15:10:31;4.10;99.90
46231;DHT22;31949;51.404;-0.038;2022-12-10T15:13:02;4.10;99.90
46231;DHT22;31949;51.404;-0.038;2022-12-10T15:15:36;4.10;99.90
46231;DHT22;31949;51.404;-0.038;2022-12-10T15:18:10;4.00;99.90
46231;DHT22;31949;51.404;-0.038;2022-12-10T15:20:50;4.10;99.90
46231;DHT22;31949;51.404;-0.038;2022-12-10T15:28:28;3.90;99.90
46231;DHT22;31949;51.404;-0.038;2022-12-10T15:36:48;3.80;99.90
46231;DHT22;31949;51.404;-0.038;2022-12-10T15:39:20;3.80;99.90
46231;DHT22;31949;51.404;-0.038;2022-12-10T15:41:51;3.70;99.90
46231;DHT22;31949;51.404;-0.038;2022-12-10T15:47:18;3.60;99.90
46231;DHT22;31949;51.404;-0.038;2022-12-10T15:49:48;3.50;99.90
46231;DHT22;31949;51.404;-0.038;2022-12-10T15:54:46;3.50;99.90
46231;DHT22;31949;51.404;-0.038;2022-12-10T15:57:16;3.40;99.90
46231;DHT22;31949;51.404;-0.038;2022-12-10T15:59:46;3.40;99.90
46231;DHT22;31949;51.404;-0.038;2022-12-10T16:07:46;3.20;99.90
46231;DHT22;31949;51.404;-0.038;2022-12-10T16:10:16;3.20;99.90
46231;DHT22;31949;51.404;-0.038;2022-12-10T16:13:03;3.20;99.90
46231;DHT22;31949;51.404;-0.038;2022-12-10T16:15:33;3.10;99.90
46231;DHT22;31949;51.404;-0.038;2022-12-10T16:18:05;3.10;99.90
46231;DHT22;31949;51.404;-0.038;2022-12-10T16:20:33;3.10;99.90
46231;DHT22;31949;51.404;-0.038;2022-12-10T16:23:00;3.00;99.90
46231;DHT22;31949;51.404;-0.038;2022-12-10T16:25:30;2.90;99.90
46231;DHT22;31949;51.404;-0.038;2022-12-10T16:27:57;2.90;99.90
46231;DHT22;31949;51.404;-0.038;2022-12-10T16:30:30;2.90;99.90
46231;DHT22;31949;51.404;-0.038;2022-12-10T16:33:05;2.80;99.90
46231;DHT22;31949;51.404;-0.038;2022-12-10T16:35:33;2.80;99.90
46231;DHT22;31949;51.404;-0.038;2022-12-10T16:38:00;2.70;99.90
46231;DHT22;31949;51.404;-0.038;2022-12-10T16:40:36;2.70;99.90
46231;DHT22;31949;51.404;-0.038;2022-12-10T16:43:04;2.70;99.90
46231;DHT22;31949;51.404;-0.038;2022-12-10T16:47:59;2.60;99.90
46231;DHT22;31949;51.404;-0.038;2022-12-10T16:50:26;2.50;99.90
46231;DHT22;31949;51.404;-0.038;2022-12-10T16:52:55;2.50;99.90
46231;DHT22;31949;51.404;-0.038;2022-12-10T16:55:24;2.40;99.90
46231;DHT22;31949;51.404;-0.038;2022-12-10T16:57:52;2.40;99.90
46231;DHT22;31949;51.404;-0.038;2022-12-10T17:00:24;2.30;99.90
46231;DHT22;31949;51.404;-0.038;2022-12-10T17:02:51;2.30;99.90
46231;DHT22;31949;51.404;-0.038;2022-12-10T17:05:24;2.20;99.90
46231;DHT22;31949;51.404;-0.038;2022-12-10T17:07:55;2.20;99.90
46231;DHT22;31949;51.404;-0.038;2022-12-10T17:10:22;2.10;99.90
46231;DHT22;31949;51.404;-0.038;2022-12-10T17:13:14;2.00;99.90
46231;DHT22;31949;51.404;-0.038;2022-12-10T17:15:43;2.00;99.90
46231;DHT22;31949;51.404;-0.038;2022-12-10T17:18:15;1.90;99.90
46231;DHT22;31949;51.404;-0.038;2022-12-10T17:20:44;1.90;99.90
46231;DHT22;31949;51.404;-0.038;2022-12-10T17:23:12;1.90;99.90
46231;DHT22;31949;51.404;-0.038;2022-12-10T17:25:40;1.90;99.90
46231;DHT22;31949;51.404;-0.038;2022-12-10T17:28:20;1.80;99.90
46231;DHT22;31949;51.404;-0.038;2022-12-10T17:30:49;1.80;99.90
46231;DHT22;31949;51.404;-0.038;2022-12-10T17:33:20;1.80;99.90
46231;DHT22;31949;51.404;-0.038;2022-12-10T17:35:47;1.70;99.90
46231;DHT22;31949;51.404;-0.038;2022-12-10T17:38:18;1.80;99.90
46231;DHT22;31949;51.404;-0.038;2022-12-10T17:40:45;1.70;99.90
46231;DHT22;31949;51.404;-0.038;2022-12-10T17:43:13;1.70;99.90
46231;DHT22;31949;51.404;-0.038;2022-12-10T17:45:41;1.70;99.90
46231;DHT22;31949;51.404;-0.038;2022-12-10T17:48:13;1.70;99.90
46231;DHT22;31949;51.404;-0.038;2022-12-10T17:50:42;1.70;99.90
46231;DHT22;31949;51.404;-0.038;2022-12-10T17:53:12;1.70;99.90
46231;DHT22;31949;51.404;-0.038;2022-12-10T17:55:50;1.70;99.90
46231;DHT22;31949;51.404;-0.038;2022-12-10T17:58:18;1.70;99.90
46231;DHT22;31949;51.404;-0.038;2022-12-10T18:00:47;1.70;99.90
46231;DHT22;31949;51.404;-0.038;2022-12-10T18:03:16;1.60;99.90